sensor_id;sensor_type;location;lat;lon;timestamp;P1;durP1;ratioP1;P2;durP2;ratioP2
3427;SDS011;1727;42.624;23.406;2023-05-29T00:00:00;6.73;;;5.27;;
3427;SDS011;1727;42.624;23.406;2023-05-29T00:02:30;5.17;;;4.67;;
3427;SDS011;1727;42.624;23.406;2023-05-29T00:04:57;5.83;;;5.07;;
3427;SDS011;1727;42.624;23.406;2023-05-29T00:07:25;5.57;;;5.07;;
3427;SDS011;1727;42.624;23.406;2023-05-29T00:09:52;5.43;;;4.93;;
3427;SDS011;1727;42.624;23.406;2023-05-29T00:12:19;5.00;;;4.50;;
3427;SDS011;1727;42.624;23.406;2023-05-29T00:14:47;5.10;;;4.50;;
3427;SDS011;1727;42.624;23.406;2023-05-29T00:17:14;13.00;;;4.93;;
3427;SDS011;1727;42.624;23.406;2023-05-29T00:19:42;10.43;;;4.43;;
3427;SDS011;1727;42.624;23.406;2023-05-29T00:22:09;6.80;;;4.87;;
3427;SDS011;1727;42.624;23.406;2023-05-29T00:24:37;8.30;;;4.97;;
3427;SDS011;1727;42.624;23.406;2023-05-29T00:27:04;4.97;;;4.57;;
3427;SDS011;1727;42.624;23.406;2023-05-29T00:29:31;13.50;;;4.47;;
3427;SDS011;1727;42.624;23.406;2023-05-29T00:31:58;6.50;;;4.73;;
3427;SDS011;1727;42.624;23.406;2023-05-29T00:34:25;6.83;;;5.20;;
3427;SDS011;1727;42.624;23.406;2023-05-29T00:36:51;5.60;;;4.53;;
3427;SDS011;1727;42.624;23.406;2023-05-29T00:39:19;6.13;;;4.97;;
3427;SDS011;1727;42.624;23.406;2023-05-29T00:41:48;4.67;;;4.23;;
3427;SDS011;1727;42.624;23.406;2023-05-29T00:44:16;10.30;;;5.83;;
3427;SDS011;1727;42.624;23.406;2023-05-29T00:46:43;5.50;;;4.90;;
3427;SDS011;1727;42.624;23.406;2023-05-29T00:49:10;5.23;;;4.50;;
3427;SDS011;1727;42.624;23.406;2023-05-29T00:51:37;7.30;;;4.73;;
3427;SDS011;1727;42.624;23.406;2023-05-29T00:54:05;5.87;;;5.23;;
3427;SDS011;1727;42.624;23.406;2023-05-29T00:56:34;5.97;;;4.87;;
3427;SDS011;1727;42.624;23.406;2023-05-29T00:59:02;4.37;;;3.97;;
3427;SDS011;1727;42.624;23.406;2023-05-29T01:01:29;5.57;;;4.27;;
3427;SDS011;1727;42.624;23.406;2023-05-29T01:03:57;4.83;;;4.40;;
3427;SDS011;1727;42.624;23.406;2023-05-29T01:06:27;5.23;;;4.73;;
3427;SDS011;1727;42.624;23.406;2023-05-29T01:08:54;4.60;;;4.20;;
3427;SDS011;1727;42.624;23.406;2023-05-29T01:11:22;4.60;;;4.20;;
3427;SDS011;1727;42.624;23.406;2023-05-29T01:13:55;7.00;;;5.03;;
3427;SDS011;1727;42.624;23.406;2023-05-29T01:16:29;4.57;;;4.17;;
3427;SDS011;1727;42.624;23.406;2023-05-29T01:19:05;5.20;;;4.70;;
3427;SDS011;1727;42.624;23.406;2023-05-29T01:21:42;6.13;;;5.10;;
3427;SDS011;1727;42.624;23.406;2023-05-29T01:24:24;7.50;;;5.50;;
3427;SDS011;1727;42.624;23.406;2023-05-29T01:26:56;4.80;;;4.27;;
3427;SDS011;1727;42.624;23.406;2023-05-29T01:29:28;6.57;;;5.00;;
3427;SDS011;1727;42.624;23.406;2023-05-29T01:31:56;5.83;;;5.03;;
3427;SDS011;1727;42.624;23.406;2023-05-29T01:34:24;7.00;;;5.47;;
3427;SDS011;1727;42.624;23.406;2023-05-29T01:36:51;4.60;;;4.20;;
3427;SDS011;1727;42.624;23.406;2023-05-29T01:39:18;5.57;;;5.07;;
3427;SDS011;1727;42.624;23.406;2023-05-29T01:41:46;9.30;;;4.80;;
3427;SDS011;1727;42.624;23.406;2023-05-29T01:44:15;4.77;;;4.23;;
3427;SDS011;1727;42.624;23.406;2023-05-29T01:46:44;10.63;;;5.70;;
3427;SDS011;1727;42.624;23.406;2023-05-29T01:49:11;6.03;;;4.70;;
3427;SDS011;1727;42.624;23.406;2023-05-29T01:51:39;6.70;;;5.40;;
3427;SDS011;1727;42.624;23.406;2023-05-29T01:54:06;5.63;;;4.80;;
3427;SDS011;1727;42.624;23.406;2023-05-29T01:56:33;9.93;;;4.70;;
3427;SDS011;1727;42.624;23.406;2023-05-29T01:59:01;6.20;;;5.00;;
3427;SDS011;1727;42.624;23.406;2023-05-29T02:01:30;11.80;;;5.23;;
3427;SDS011;1727;42.624;23.406;2023-05-29T02:03:57;6.03;;;4.30;;
3427;SDS011;1727;42.624;23.406;2023-05-29T02:06:24;5.13;;;4.63;;
3427;SDS011;1727;42.624;23.406;2023-05-29T02:08:51;12.23;;;4.57;;
3427;SDS011;1727;42.624;23.406;2023-05-29T02:11:17;6.73;;;5.17;;
3427;SDS011;1727;42.624;23.406;2023-05-29T02:13:45;5.00;;;4.30;;
3427;SDS011;1727;42.624;23.406;2023-05-29T02:16:12;5.40;;;4.90;;
3427;SDS011;1727;42.624;23.406;2023-05-29T02:18:40;6.03;;;4.67;;
3427;SDS011;1727;42.624;23.406;2023-05-29T02:21:08;7.07;;;4.97;;
3427;SDS011;1727;42.624;23.406;2023-05-29T02:23:35;8.10;;;4.93;;
3427;SDS011;1727;42.624;23.406;2023-05-29T02:26:02;5.60;;;5.10;;
3427;SDS011;1727;42.624;23.406;2023-05-29T02:28:28;8.97;;;5.40;;
3427;SDS011;1727;42.624;23.406;2023-05-29T02:30:55;6.00;;;5.07;;
3427;SDS011;1727;42.624;23.406;2023-05-29T02:33:22;6.60;;;4.60;;
3427;SDS011;1727;42.624;23.406;2023-05-29T02:35:50;5.90;;;5.40;;
3427;SDS011;1727;42.624;23.406;2023-05-29T02:38:17;5.03;;;4.63;;
3427;SDS011;1727;42.624;23.406;2023-05-29T02:40:44;7.60;;;5.57;;
3427;SDS011;1727;42.624;23.406;2023-05-29T02:43:12;5.77;;;5.07;;
3427;SDS011;1727;42.624;23.406;2023-05-29T02:45:39;6.93;;;5.23;;
3427;SDS011;1727;42.624;23.406;2023-05-29T02:48:06;8.83;;;5.00;;
3427;SDS011;1727;42.624;23.406;2023-05-29T02:50:33;9.10;;;5.23;;
3427;SDS011;1727;42.624;23.406;2023-05-29T02:53:01;9.37;;;4.60;;
3427;SDS011;1727;42.624;23.406;2023-05-29T02:55:28;11.03;;;5.30;;
3427;SDS011;1727;42.624;23.406;2023-05-29T02:57:57;6.37;;;5.67;;
3427;SDS011;1727;42.624;23.406;2023-05-29T03:00:25;5.77;;;4.83;;
3427;SDS011;1727;42.624;23.406;2023-05-29T03:02:53;5.47;;;4.40;;
3427;SDS011;1727;42.624;23.406;2023-05-29T03:05:20;10.80;;;5.00;;
3427;SDS011;1727;42.624;23.406;2023-05-29T03:07:47;8.20;;;5.10;;
3427;SDS011;1727;42.624;23.406;2023-05-29T03:10:15;5.90;;;4.97;;
3427;SDS011;1727;42.624;23.406;2023-05-29T03:12:42;10.87;;;5.50;;
3427;SDS011;1727;42.624;23.406;2023-05-29T03:15:10;5.60;;;4.97;;
3427;SDS011;1727;42.624;23.406;2023-05-29T03:17:36;6.77;;;5.10;;
3427;SDS011;1727;42.624;23.406;2023-05-29T03:20:03;7.37;;;4.77;;
3427;SDS011;1727;42.624;23.406;2023-05-29T03:22:33;7.30;;;5.93;;
3427;SDS011;1727;42.624;23.406;2023-05-29T03:25:01;5.30;;;4.87;;
3427;SDS011;1727;42.624;23.406;2023-05-29T03:27:30;8.83;;;5.17;;
3427;SDS011;1727;42.624;23.406;2023-05-29T03:29:57;9.30;;;5.10;;
3427;SDS011;1727;42.624;23.406;2023-05-29T03:32:24;7.93;;;5.87;;
3427;SDS011;1727;42.624;23.406;2023-05-29T03:34:51;5.67;;;5.17;;
3427;SDS011;1727;42.624;23.406;2023-05-29T03:37:18;6.63;;;6.03;;
3427;SDS011;1727;42.624;23.406;2023-05-29T03:39:44;5.53;;;5.03;;
3427;SDS011;1727;42.624;23.406;2023-05-29T03:42:11;12.50;;;5.47;;
3427;SDS011;1727;42.624;23.406;2023-05-29T03:44:40;9.57;;;5.83;;
3427;SDS011;1727;42.624;23.406;2023-05-29T03:47:07;13.70;;;7.60;;
3427;SDS011;1727;42.624;23.406;2023-05-29T03:49:34;5.13;;;4.70;;
3427;SDS011;1727;42.624;23.406;2023-05-29T03:52:01;7.40;;;4.50;;
3427;SDS011;1727;42.624;23.406;2023-05-29T03:54:28;9.53;;;5.40;;
3427;SDS011;1727;42.624;23.406;2023-05-29T03:56:54;6.77;;;5.70;;
3427;SDS011;1727;42.624;23.406;2023-05-29T03:59:21;7.73;;;5.73;;
3427;SDS011;1727;42.624;23.406;2023-05-29T04:01:49;7.00;;;5.00;;
3427;SDS011;1727;42.624;23.406;2023-05-29T04:04:16;11.93;;;5.47;;
3427;SDS011;1727;42.624;23.406;2023-05-29T04:06:43;6.07;;;5.10;;
3427;SDS011;1727;42.624;23.406;2023-05-29T04:09:09;6.50;;;4.83;;
3427;SDS011;1727;42.624;23.406;2023-05-29T04:11:36;8.33;;;4.97;;
3427;SDS011;1727;42.624;23.406;2023-05-29T04:14:03;7.13;;;4.60;;
3427;SDS011;1727;42.624;23.406;2023-05-29T04:16:30;8.00;;;5.00;;
3427;SDS011;1727;42.624;23.406;2023-05-29T04:18:58;6.20;;;4.87;;
3427;SDS011;1727;42.624;23.406;2023-05-29T04:21:25;6.33;;;5.43;;
3427;SDS011;1727;42.624;23.406;2023-05-29T04:23:52;7.53;;;5.57;;
3427;SDS011;1727;42.624;23.406;2023-05-29T04:26:19;13.20;;;6.10;;
3427;SDS011;1727;42.624;23.406;2023-05-29T04:28:50;10.40;;;4.50;;
3427;SDS011;1727;42.624;23.406;2023-05-29T04:31:17;9.90;;;5.80;;
3427;SDS011;1727;42.624;23.406;2023-05-29T04:33:47;5.37;;;4.83;;
3427;SDS011;1727;42.624;23.406;2023-05-29T04:36:15;5.70;;;5.07;;
3427;SDS011;1727;42.624;23.406;2023-05-29T04:38:42;9.30;;;5.10;;
3427;SDS011;1727;42.624;23.406;2023-05-29T04:41:10;11.80;;;5.80;;
3427;SDS011;1727;42.624;23.406;2023-05-29T04:43:37;5.60;;;4.90;;
3427;SDS011;1727;42.624;23.406;2023-05-29T04:46:05;7.10;;;5.57;;
3427;SDS011;1727;42.624;23.406;2023-05-29T04:48:37;8.83;;;4.70;;
3427;SDS011;1727;42.624;23.406;2023-05-29T04:51:05;7.93;;;4.80;;
3427;SDS011;1727;42.624;23.406;2023-05-29T04:53:37;6.80;;;5.40;;
3427;SDS011;1727;42.624;23.406;2023-05-29T04:56:05;7.53;;;5.70;;
3427;SDS011;1727;42.624;23.406;2023-05-29T04:58:32;14.27;;;5.10;;
3427;SDS011;1727;42.624;23.406;2023-05-29T05:00:59;8.27;;;5.47;;
3427;SDS011;1727;42.624;23.406;2023-05-29T05:03:28;8.27;;;5.57;;
3427;SDS011;1727;42.624;23.406;2023-05-29T05:05:55;8.77;;;4.97;;
3427;SDS011;1727;42.624;23.406;2023-05-29T05:08:22;8.80;;;5.70;;
3427;SDS011;1727;42.624;23.406;2023-05-29T05:10:50;7.23;;;5.57;;
3427;SDS011;1727;42.624;23.406;2023-05-29T05:13:17;6.93;;;5.20;;
3427;SDS011;1727;42.624;23.406;2023-05-29T05:15:44;9.90;;;5.63;;
3427;SDS011;1727;42.624;23.406;2023-05-29T05:18:11;9.40;;;5.10;;
3427;SDS011;1727;42.624;23.406;2023-05-29T05:20:38;5.60;;;4.37;;
3427;SDS011;1727;42.624;23.406;2023-05-29T05:23:04;8.43;;;5.70;;
3427;SDS011;1727;42.624;23.406;2023-05-29T05:25:31;8.50;;;5.50;;
3427;SDS011;1727;42.624;23.406;2023-05-29T05:28:01;8.07;;;5.70;;
3427;SDS011;1727;42.624;23.406;2023-05-29T05:30:29;8.23;;;5.50;;
3427;SDS011;1727;42.624;23.406;2023-05-29T05:32:56;8.40;;;4.80;;
3427;SDS011;1727;42.624;23.406;2023-05-29T05:35:22;11.10;;;4.57;;
3427;SDS011;1727;42.624;23.406;2023-05-29T05:37:49;8.80;;;4.73;;
3427;SDS011;1727;42.624;23.406;2023-05-29T05:40:16;8.50;;;4.80;;
3427;SDS011;1727;42.624;23.406;2023-05-29T05:42:43;13.07;;;5.00;;
3427;SDS011;1727;42.624;23.406;2023-05-29T05:45:11;5.77;;;4.70;;
3427;SDS011;1727;42.624;23.406;2023-05-29T05:47:38;6.03;;;4.17;;
3427;SDS011;1727;42.624;23.406;2023-05-29T05:50:05;9.07;;;6.30;;
3427;SDS011;1727;42.624;23.406;2023-05-29T05:52:32;8.90;;;5.43;;
3427;SDS011;1727;42.624;23.406;2023-05-29T05:54:59;12.27;;;5.70;;
3427;SDS011;1727;42.624;23.406;2023-05-29T05:57:26;14.53;;;5.93;;
3427;SDS011;1727;42.624;23.406;2023-05-29T05:59:52;8.63;;;5.87;;
3427;SDS011;1727;42.624;23.406;2023-05-29T06:02:21;9.83;;;6.30;;
3427;SDS011;1727;42.624;23.406;2023-05-29T06:04:47;10.50;;;5.40;;
3427;SDS011;1727;42.624;23.406;2023-05-29T06:07:15;10.07;;;5.90;;
3427;SDS011;1727;42.624;23.406;2023-05-29T06:09:42;6.87;;;5.13;;
3427;SDS011;1727;42.624;23.406;2023-05-29T06:12:09;11.17;;;8.03;;
3427;SDS011;1727;42.624;23.406;2023-05-29T06:14:37;11.30;;;9.00;;
3427;SDS011;1727;42.624;23.406;2023-05-29T06:17:04;15.60;;;8.20;;
3427;SDS011;1727;42.624;23.406;2023-05-29T06:19:32;10.37;;;6.10;;
3427;SDS011;1727;42.624;23.406;2023-05-29T06:21:59;13.03;;;8.10;;
3427;SDS011;1727;42.624;23.406;2023-05-29T06:24:26;7.80;;;6.27;;
3427;SDS011;1727;42.624;23.406;2023-05-29T06:26:53;7.53;;;5.97;;
3427;SDS011;1727;42.624;23.406;2023-05-29T06:29:20;9.90;;;6.57;;
3427;SDS011;1727;42.624;23.406;2023-05-29T06:31:46;15.80;;;5.63;;
3427;SDS011;1727;42.624;23.406;2023-05-29T06:34:13;13.67;;;5.50;;
3427;SDS011;1727;42.624;23.406;2023-05-29T06:36:41;13.13;;;6.87;;
3427;SDS011;1727;42.624;23.406;2023-05-29T06:39:08;23.63;;;6.83;;
3427;SDS011;1727;42.624;23.406;2023-05-29T06:41:35;9.83;;;5.90;;
3427;SDS011;1727;42.624;23.406;2023-05-29T06:44:02;11.90;;;6.53;;
3427;SDS011;1727;42.624;23.406;2023-05-29T06:46:32;14.90;;;6.90;;
3427;SDS011;1727;42.624;23.406;2023-05-29T06:48:59;7.63;;;5.90;;
3427;SDS011;1727;42.624;23.406;2023-05-29T06:51:26;18.40;;;6.10;;
3427;SDS011;1727;42.624;23.406;2023-05-29T06:53:54;16.10;;;6.80;;
3427;SDS011;1727;42.624;23.406;2023-05-29T06:56:21;7.63;;;5.37;;
3427;SDS011;1727;42.624;23.406;2023-05-29T06:58:48;5.93;;;3.70;;
3427;SDS011;1727;42.624;23.406;2023-05-29T07:01:15;5.97;;;4.20;;
3427;SDS011;1727;42.624;23.406;2023-05-29T07:03:41;7.43;;;4.63;;
3427;SDS011;1727;42.624;23.406;2023-05-29T07:06:08;6.47;;;4.33;;
3427;SDS011;1727;42.624;23.406;2023-05-29T07:08:35;3.60;;;3.30;;
3427;SDS011;1727;42.624;23.406;2023-05-29T07:11:03;6.03;;;3.60;;
3427;SDS011;1727;42.624;23.406;2023-05-29T07:13:30;4.70;;;2.97;;
3427;SDS011;1727;42.624;23.406;2023-05-29T07:15:57;4.20;;;3.10;;
3427;SDS011;1727;42.624;23.406;2023-05-29T07:18:23;5.17;;;4.17;;
3427;SDS011;1727;42.624;23.406;2023-05-29T07:20:50;5.07;;;3.20;;
3427;SDS011;1727;42.624;23.406;2023-05-29T07:23:17;4.73;;;2.87;;
3427;SDS011;1727;42.624;23.406;2023-05-29T07:25:44;5.07;;;2.77;;
3427;SDS011;1727;42.624;23.406;2023-05-29T07:28:12;4.57;;;3.43;;
3427;SDS011;1727;42.624;23.406;2023-05-29T07:30:39;10.07;;;3.83;;
3427;SDS011;1727;42.624;23.406;2023-05-29T07:33:06;4.43;;;3.50;;
3427;SDS011;1727;42.624;23.406;2023-05-29T07:35:33;4.00;;;3.20;;
3427;SDS011;1727;42.624;23.406;2023-05-29T07:37:59;4.00;;;3.60;;
3427;SDS011;1727;42.624;23.406;2023-05-29T07:40:26;3.00;;;2.80;;
3427;SDS011;1727;42.624;23.406;2023-05-29T07:42:53;5.03;;;2.73;;
3427;SDS011;1727;42.624;23.406;2023-05-29T07:45:21;4.33;;;3.40;;
3427;SDS011;1727;42.624;23.406;2023-05-29T07:47:48;3.43;;;2.57;;
3427;SDS011;1727;42.624;23.406;2023-05-29T07:50:15;5.40;;;3.30;;
3427;SDS011;1727;42.624;23.406;2023-05-29T07:52:42;3.87;;;3.57;;
3427;SDS011;1727;42.624;23.406;2023-05-29T07:55:09;4.90;;;3.33;;
3427;SDS011;1727;42.624;23.406;2023-05-29T07:57:35;7.10;;;3.80;;
3427;SDS011;1727;42.624;23.406;2023-05-29T08:00:02;4.40;;;3.10;;
3427;SDS011;1727;42.624;23.406;2023-05-29T08:02:35;9.63;;;3.50;;
3427;SDS011;1727;42.624;23.406;2023-05-29T08:05:02;3.47;;;3.17;;
3427;SDS011;1727;42.624;23.406;2023-05-29T08:07:29;3.83;;;3.40;;
3427;SDS011;1727;42.624;23.406;2023-05-29T08:09:57;4.33;;;3.53;;
3427;SDS011;1727;42.624;23.406;2023-05-29T08:12:24;5.30;;;3.57;;
3427;SDS011;1727;42.624;23.406;2023-05-29T08:14:50;4.37;;;3.97;;
3427;SDS011;1727;42.624;23.406;2023-05-29T08:17:17;4.00;;;3.60;;
3427;SDS011;1727;42.624;23.406;2023-05-29T08:19:45;4.03;;;3.20;;
3427;SDS011;1727;42.624;23.406;2023-05-29T08:22:13;8.10;;;3.93;;
3427;SDS011;1727;42.624;23.406;2023-05-29T08:24:41;12.20;;;4.40;;
3427;SDS011;1727;42.624;23.406;2023-05-29T08:27:07;6.03;;;4.10;;
3427;SDS011;1727;42.624;23.406;2023-05-29T08:29:34;4.33;;;3.47;;
3427;SDS011;1727;42.624;23.406;2023-05-29T08:32:03;4.80;;;3.97;;
3427;SDS011;1727;42.624;23.406;2023-05-29T08:34:30;4.90;;;4.10;;
3427;SDS011;1727;42.624;23.406;2023-05-29T08:36:58;4.03;;;3.13;;
3427;SDS011;1727;42.624;23.406;2023-05-29T08:39:25;11.40;;;3.67;;
3427;SDS011;1727;42.624;23.406;2023-05-29T08:41:55;6.63;;;3.80;;
3427;SDS011;1727;42.624;23.406;2023-05-29T08:44:29;10.53;;;3.13;;
3427;SDS011;1727;42.624;23.406;2023-05-29T08:46:57;6.23;;;3.70;;
3427;SDS011;1727;42.624;23.406;2023-05-29T08:49:29;7.30;;;4.20;;
3427;SDS011;1727;42.624;23.406;2023-05-29T08:52:05;6.23;;;3.67;;
3427;SDS011;1727;42.624;23.406;2023-05-29T08:54:38;9.30;;;3.60;;
3427;SDS011;1727;42.624;23.406;2023-05-29T08:57:06;61.63;;;7.57;;
3427;SDS011;1727;42.624;23.406;2023-05-29T08:59:33;3.80;;;3.37;;
3427;SDS011;1727;42.624;23.406;2023-05-29T09:02:01;7.63;;;4.40;;
3427;SDS011;1727;42.624;23.406;2023-05-29T09:04:28;6.70;;;3.73;;
3427;SDS011;1727;42.624;23.406;2023-05-29T09:06:55;4.03;;;3.57;;
3427;SDS011;1727;42.624;23.406;2023-05-29T09:09:25;4.27;;;3.87;;
3427;SDS011;1727;42.624;23.406;2023-05-29T09:11:52;5.60;;;4.00;;
3427;SDS011;1727;42.624;23.406;2023-05-29T09:14:32;5.60;;;3.90;;
3427;SDS011;1727;42.624;23.406;2023-05-29T09:17:00;6.30;;;4.10;;
3427;SDS011;1727;42.624;23.406;2023-05-29T09:19:28;7.83;;;4.00;;
3427;SDS011;1727;42.624;23.406;2023-05-29T09:21:59;3.93;;;3.63;;
3427;SDS011;1727;42.624;23.406;2023-05-29T09:24:28;5.47;;;3.60;;
3427;SDS011;1727;42.624;23.406;2023-05-29T09:26:55;6.93;;;3.80;;
3427;SDS011;1727;42.624;23.406;2023-05-29T09:29:24;7.73;;;3.70;;
3427;SDS011;1727;42.624;23.406;2023-05-29T09:31:51;3.60;;;3.27;;
3427;SDS011;1727;42.624;23.406;2023-05-29T09:34:18;4.13;;;3.43;;
3427;SDS011;1727;42.624;23.406;2023-05-29T09:36:45;12.43;;;3.67;;
3427;SDS011;1727;42.624;23.406;2023-05-29T09:39:11;3.87;;;3.47;;
3427;SDS011;1727;42.624;23.406;2023-05-29T09:41:42;3.57;;;3.27;;
3427;SDS011;1727;42.624;23.406;2023-05-29T09:44:11;5.97;;;3.60;;
3427;SDS011;1727;42.624;23.406;2023-05-29T09:46:39;4.83;;;3.83;;
3427;SDS011;1727;42.624;23.406;2023-05-29T09:49:11;7.30;;;3.10;;
3427;SDS011;1727;42.624;23.406;2023-05-29T09:51:38;3.87;;;3.47;;
3427;SDS011;1727;42.624;23.406;2023-05-29T09:54:12;4.67;;;3.70;;
3427;SDS011;1727;42.624;23.406;2023-05-29T09:56:40;4.50;;;4.10;;
3427;SDS011;1727;42.624;23.406;2023-05-29T09:59:11;5.00;;;4.33;;
3427;SDS011;1727;42.624;23.406;2023-05-29T10:01:39;16.20;;;4.20;;
3427;SDS011;1727;42.624;23.406;2023-05-29T10:04:09;7.73;;;4.00;;
3427;SDS011;1727;42.624;23.406;2023-05-29T10:06:36;4.03;;;3.73;;
3427;SDS011;1727;42.624;23.406;2023-05-29T10:09:08;4.93;;;4.23;;
3427;SDS011;1727;42.624;23.406;2023-05-29T10:11:37;5.63;;;4.50;;
3427;SDS011;1727;42.624;23.406;2023-05-29T10:14:08;6.60;;;5.10;;
3427;SDS011;1727;42.624;23.406;2023-05-29T10:16:38;4.43;;;4.00;;
3427;SDS011;1727;42.624;23.406;2023-05-29T10:19:08;7.53;;;4.40;;
3427;SDS011;1727;42.624;23.406;2023-05-29T10:21:39;4.17;;;3.77;;
3427;SDS011;1727;42.624;23.406;2023-05-29T10:24:07;5.00;;;4.60;;
3427;SDS011;1727;42.624;23.406;2023-05-29T10:26:38;4.40;;;3.60;;
3427;SDS011;1727;42.624;23.406;2023-05-29T10:29:10;4.10;;;3.77;;
3427;SDS011;1727;42.624;23.406;2023-05-29T10:31:46;4.17;;;3.60;;
3427;SDS011;1727;42.624;23.406;2023-05-29T10:34:23;7.30;;;4.30;;
3427;SDS011;1727;42.624;23.406;2023-05-29T10:37:01;5.83;;;3.80;;
3427;SDS011;1727;42.624;23.406;2023-05-29T10:39:32;6.97;;;3.93;;
3427;SDS011;1727;42.624;23.406;2023-05-29T10:41:59;4.67;;;4.00;;
3427;SDS011;1727;42.624;23.406;2023-05-29T10:44:40;5.50;;;4.23;;
3427;SDS011;1727;42.624;23.406;2023-05-29T10:47:07;4.67;;;4.27;;
3427;SDS011;1727;42.624;23.406;2023-05-29T10:49:36;7.20;;;4.40;;
3427;SDS011;1727;42.624;23.406;2023-05-29T10:52:03;5.80;;;4.53;;
3427;SDS011;1727;42.624;23.406;2023-05-29T10:54:39;6.97;;;4.30;;
3427;SDS011;1727;42.624;23.406;2023-05-29T10:57:16;7.43;;;3.80;;
3427;SDS011;1727;42.624;23.406;2023-05-29T10:59:45;5.20;;;4.10;;
3427;SDS011;1727;42.624;23.406;2023-05-29T11:02:17;4.20;;;3.90;;
3427;SDS011;1727;42.624;23.406;2023-05-29T11:04:44;7.57;;;4.70;;
3427;SDS011;1727;42.624;23.406;2023-05-29T11:07:34;4.93;;;4.30;;
3427;SDS011;1727;42.624;23.406;2023-05-29T11:10:10;5.23;;;3.90;;
3427;SDS011;1727;42.624;23.406;2023-05-29T11:15:25;5.70;;;4.70;;
3427;SDS011;1727;42.624;23.406;2023-05-29T11:17:52;4.47;;;4.07;;
3427;SDS011;1727;42.624;23.406;2023-05-29T11:20:35;7.10;;;3.97;;
3427;SDS011;1727;42.624;23.406;2023-05-29T11:23:06;7.70;;;4.00;;
3427;SDS011;1727;42.624;23.406;2023-05-29T11:25:35;4.77;;;3.70;;
3427;SDS011;1727;42.624;23.406;2023-05-29T11:28:03;3.90;;;3.60;;
3427;SDS011;1727;42.624;23.406;2023-05-29T11:30:41;7.93;;;5.13;;
3427;SDS011;1727;42.624;23.406;2023-05-29T11:33:15;8.77;;;4.20;;
3427;SDS011;1727;42.624;23.406;2023-05-29T11:35:50;8.73;;;4.50;;
3427;SDS011;1727;42.624;23.406;2023-05-29T11:38:22;6.00;;;3.87;;
3427;SDS011;1727;42.624;23.406;2023-05-29T11:40:49;4.80;;;4.30;;
3427;SDS011;1727;42.624;23.406;2023-05-29T11:43:16;4.93;;;4.33;;
3427;SDS011;1727;42.624;23.406;2023-05-29T11:45:44;5.40;;;4.10;;
3427;SDS011;1727;42.624;23.406;2023-05-29T11:48:11;5.47;;;4.40;;
3427;SDS011;1727;42.624;23.406;2023-05-29T11:50:38;5.70;;;4.30;;
3427;SDS011;1727;42.624;23.406;2023-05-29T11:53:05;4.37;;;3.97;;
3427;SDS011;1727;42.624;23.406;2023-05-29T11:55:33;4.60;;;3.87;;
3427;SDS011;1727;42.624;23.406;2023-05-29T11:58:01;5.37;;;4.20;;
3427;SDS011;1727;42.624;23.406;2023-05-29T12:00:30;5.83;;;4.57;;
3427;SDS011;1727;42.624;23.406;2023-05-29T12:02:59;5.23;;;4.40;;
3427;SDS011;1727;42.624;23.406;2023-05-29T12:05:29;14.40;;;4.30;;
3427;SDS011;1727;42.624;23.406;2023-05-29T12:07:56;6.60;;;4.20;;
3427;SDS011;1727;42.624;23.406;2023-05-29T12:10:26;4.80;;;4.20;;
3427;SDS011;1727;42.624;23.406;2023-05-29T12:12:54;12.63;;;4.50;;
3427;SDS011;1727;42.624;23.406;2023-05-29T12:15:22;6.20;;;4.20;;
3427;SDS011;1727;42.624;23.406;2023-05-29T12:17:49;6.30;;;4.50;;
3427;SDS011;1727;42.624;23.406;2023-05-29T12:20:18;5.77;;;4.37;;
3427;SDS011;1727;42.624;23.406;2023-05-29T12:22:47;5.00;;;4.50;;
3427;SDS011;1727;42.624;23.406;2023-05-29T12:25:16;12.23;;;4.57;;
3427;SDS011;1727;42.624;23.406;2023-05-29T12:27:45;4.80;;;4.30;;
3427;SDS011;1727;42.624;23.406;2023-05-29T12:30:14;6.60;;;4.20;;
3427;SDS011;1727;42.624;23.406;2023-05-29T12:32:47;11.03;;;4.30;;
3427;SDS011;1727;42.624;23.406;2023-05-29T12:35:16;4.80;;;4.30;;
3427;SDS011;1727;42.624;23.406;2023-05-29T12:37:46;5.50;;;4.23;;
3427;SDS011;1727;42.624;23.406;2023-05-29T12:40:15;6.30;;;4.20;;
3427;SDS011;1727;42.624;23.406;2023-05-29T12:42:46;4.70;;;4.20;;
3427;SDS011;1727;42.624;23.406;2023-05-29T12:45:14;9.00;;;3.93;;
3427;SDS011;1727;42.624;23.406;2023-05-29T12:47:51;4.47;;;4.07;;
3427;SDS011;1727;42.624;23.406;2023-05-29T12:50:20;4.97;;;3.40;;
3427;SDS011;1727;42.624;23.406;2023-05-29T12:52:58;6.20;;;4.17;;
3427;SDS011;1727;42.624;23.406;2023-05-29T12:55:26;6.40;;;4.93;;
3427;SDS011;1727;42.624;23.406;2023-05-29T12:57:53;18.60;;;4.50;;
3427;SDS011;1727;42.624;23.406;2023-05-29T13:00:21;6.30;;;4.57;;
3427;SDS011;1727;42.624;23.406;2023-05-29T13:02:48;8.20;;;5.27;;
3427;SDS011;1727;42.624;23.406;2023-05-29T13:05:16;4.73;;;4.37;;
3427;SDS011;1727;42.624;23.406;2023-05-29T13:07:45;9.53;;;5.33;;
3427;SDS011;1727;42.624;23.406;2023-05-29T13:10:13;8.40;;;5.13;;
3427;SDS011;1727;42.624;23.406;2023-05-29T13:12:40;8.27;;;6.27;;
3427;SDS011;1727;42.624;23.406;2023-05-29T13:15:07;5.40;;;4.30;;
3427;SDS011;1727;42.624;23.406;2023-05-29T13:17:34;10.77;;;4.73;;
3427;SDS011;1727;42.624;23.406;2023-05-29T13:20:01;9.63;;;7.20;;
3427;SDS011;1727;42.624;23.406;2023-05-29T13:22:31;14.80;;;7.07;;
3427;SDS011;1727;42.624;23.406;2023-05-29T13:24:59;10.40;;;5.93;;
3427;SDS011;1727;42.624;23.406;2023-05-29T13:27:26;6.73;;;5.07;;
3427;SDS011;1727;42.624;23.406;2023-05-29T13:29:54;6.70;;;5.20;;
3427;SDS011;1727;42.624;23.406;2023-05-29T13:32:21;4.80;;;4.00;;
3427;SDS011;1727;42.624;23.406;2023-05-29T13:34:47;10.43;;;5.23;;
3427;SDS011;1727;42.624;23.406;2023-05-29T13:37:14;13.60;;;6.30;;
3427;SDS011;1727;42.624;23.406;2023-05-29T13:39:41;11.40;;;6.17;;
3427;SDS011;1727;42.624;23.406;2023-05-29T13:42:09;14.67;;;6.70;;
3427;SDS011;1727;42.624;23.406;2023-05-29T13:44:36;9.17;;;5.90;;
3427;SDS011;1727;42.624;23.406;2023-05-29T13:47:04;8.03;;;5.50;;
3427;SDS011;1727;42.624;23.406;2023-05-29T13:49:32;11.23;;;6.47;;
3427;SDS011;1727;42.624;23.406;2023-05-29T13:51:58;7.40;;;5.17;;
3427;SDS011;1727;42.624;23.406;2023-05-29T13:54:25;11.87;;;6.73;;
3427;SDS011;1727;42.624;23.406;2023-05-29T13:56:54;10.10;;;5.53;;
3427;SDS011;1727;42.624;23.406;2023-05-29T13:59:23;6.13;;;5.23;;
3427;SDS011;1727;42.624;23.406;2023-05-29T14:01:50;6.37;;;5.47;;
3427;SDS011;1727;42.624;23.406;2023-05-29T14:04:17;6.60;;;5.40;;
3427;SDS011;1727;42.624;23.406;2023-05-29T14:06:44;7.70;;;6.03;;
3427;SDS011;1727;42.624;23.406;2023-05-29T14:09:10;16.43;;;5.80;;
3427;SDS011;1727;42.624;23.406;2023-05-29T14:11:38;11.13;;;5.83;;
3427;SDS011;1727;42.624;23.406;2023-05-29T14:14:05;6.00;;;5.07;;
3427;SDS011;1727;42.624;23.406;2023-05-29T14:16:33;8.20;;;4.87;;
3427;SDS011;1727;42.624;23.406;2023-05-29T14:19:00;10.83;;;5.80;;
3427;SDS011;1727;42.624;23.406;2023-05-29T14:21:27;9.90;;;5.07;;
3427;SDS011;1727;42.624;23.406;2023-05-29T14:23:53;7.60;;;5.97;;
3427;SDS011;1727;42.624;23.406;2023-05-29T14:26:20;5.53;;;4.70;;
3427;SDS011;1727;42.624;23.406;2023-05-29T14:28:47;5.37;;;4.20;;
3427;SDS011;1727;42.624;23.406;2023-05-29T14:31:14;7.83;;;5.20;;
3427;SDS011;1727;42.624;23.406;2023-05-29T14:33:42;7.13;;;4.90;;
3427;SDS011;1727;42.624;23.406;2023-05-29T14:36:09;7.07;;;4.37;;
3427;SDS011;1727;42.624;23.406;2023-05-29T14:38:35;5.43;;;4.63;;
3427;SDS011;1727;42.624;23.406;2023-05-29T14:41:02;4.93;;;4.43;;
3427;SDS011;1727;42.624;23.406;2023-05-29T14:43:29;10.13;;;4.57;;
3427;SDS011;1727;42.624;23.406;2023-05-29T14:45:56;4.40;;;3.60;;
3427;SDS011;1727;42.624;23.406;2023-05-29T14:48:23;7.33;;;5.37;;
3427;SDS011;1727;42.624;23.406;2023-05-29T14:50:51;5.90;;;4.60;;
3427;SDS011;1727;42.624;23.406;2023-05-29T14:53:18;5.20;;;4.70;;
3427;SDS011;1727;42.624;23.406;2023-05-29T14:55:45;5.23;;;4.83;;
3427;SDS011;1727;42.624;23.406;2023-05-29T14:58:12;3.80;;;3.50;;
3427;SDS011;1727;42.624;23.406;2023-05-29T15:00:39;4.80;;;3.87;;
3427;SDS011;1727;42.624;23.406;2023-05-29T15:03:06;3.07;;;2.87;;
3427;SDS011;1727;42.624;23.406;2023-05-29T15:05:33;4.57;;;3.00;;
3427;SDS011;1727;42.624;23.406;2023-05-29T15:08:01;6.13;;;3.20;;